Impacts METAR Board
IDs:

KRWV - Caldwell Muni, TX, US

Updated at: 0100 UTC 01 Nov 2020
Potential Impact None Slight Moderate High
Time 31/13Z 31/14Z 31/15Z 31/16Z 31/17Z 31/18Z 31/19Z 31/20Z 31/21Z 31/22Z 31/23Z 01/00Z 01/01Z
Temp39 47 53 61 65 68 70 72 74 74 71 64 58
Dewpt 46 49 49 44 43 43 43 44 45 45 48 50
Altim30.23 30.25 30.26 30.26 30.25 30.22 30.18 30.14 30.12 30.11 30.10 30.11 30.13
VIS10 10 10 10 10 10 10 10 10 10 10 10 10
CIG-- -- -- -- -- -- -- -- -- -- -- -- --
CoverCLRCLRCLRCLRCLRCLRCLRCLRCLRCLRCLRCLRCLR
FltCatVFRVFRVFRVFRVFRVFRVFRVFRVFRVFRVFRVFRVFR
WX--------------------------
WDir001601701801701701501601501401300
WSpd0 0 3 6 8 6 3 7 4 8 7 3 0
WGst-- -- -- -- -- -- -- -- -- -- -- -- --
Raw hourly METARs
KRWV 311255Z AUTO 00000KT 10SM CLR 04/ A3023 RMK AO2 T0039////
KRWV 311355Z AUTO 00000KT 10SM CLR 08/08 A3025 RMK AO2 T00850076
KRWV 311455Z AUTO 16003KT 10SM CLR 11/09 A3026 RMK AO2 T01150094
KRWV 311555Z AUTO 17006KT 10SM CLR 16/09 A3026 RMK AO2 T01610092
KRWV 311655Z AUTO 18008KT 10SM CLR 18/07 A3025 RMK AO2 T01850066
KRWV 311755Z AUTO 17006KT 10SM CLR 20/06 A3022 RMK AO2 T02000060 10203 20039
KRWV 311855Z AUTO 17003KT 10SM CLR 21/06 A3018 RMK AO2 T02090062
KRWV 311955Z AUTO 15007KT 10SM CLR 22/06 A3014 RMK AO2 T02240062
KRWV 312055Z AUTO 16004KT 10SM CLR 23/07 A3012 RMK AO2 T02330066
KRWV 312155Z AUTO 15008KT 10SM CLR 24/07 A3011 RMK AO2 T02360072
KRWV 312255Z AUTO 14007KT 10SM CLR 22/07 A3010 RMK AO2 T02190073
KRWV 312355Z AUTO 13003KT 10SM CLR 18/09 A3011 RMK AO2 T01790088 10237 20178 402370039
KRWV 010055Z AUTO 00000KT 10SM CLR 15/10 A3013 RMK AO2 T01450100